createdAt,value
2018-11-27T00:00:34.304Z,3.80
2018-11-27T00:03:04.797Z,3.80
2018-11-27T00:05:33.889Z,3.80
2018-11-27T00:08:02.185Z,3.80
2018-11-27T00:10:31.733Z,3.80
2018-11-27T00:13:00.039Z,3.80
2018-11-27T00:15:28.356Z,3.80
2018-11-27T00:17:56.717Z,3.80
2018-11-27T00:20:24.997Z,3.80
2018-11-27T00:22:53.328Z,3.80
2018-11-27T00:25:21.635Z,3.80
2018-11-27T00:27:49.994Z,3.80
2018-11-27T00:30:19.325Z,3.80
2018-11-27T00:32:47.704Z,3.80
2018-11-27T00:35:17.346Z,3.80
2018-11-27T00:37:45.652Z,3.80
2018-11-27T00:40:17.569Z,3.80
2018-11-27T00:42:45.917Z,3.70
2018-11-27T00:45:15.334Z,3.70
2018-11-27T00:47:44.430Z,3.80
2018-11-27T00:50:18.679Z,3.70
2018-11-27T00:52:46.999Z,3.80
2018-11-27T00:55:16.415Z,3.70
2018-11-27T00:57:45.775Z,3.80
2018-11-27T01:00:16.243Z,3.80
2018-11-27T01:02:44.567Z,3.70
2018-11-27T01:05:14.829Z,3.80
2018-11-27T01:07:43.131Z,3.80
2018-11-27T01:10:16.768Z,3.80
2018-11-27T01:12:45.133Z,3.80
2018-11-27T01:15:14.228Z,3.80
2018-11-27T01:17:46.656Z,3.90
2018-11-27T01:20:17.958Z,3.80
2018-11-27T01:22:46.327Z,3.80
2018-11-27T01:25:14.659Z,3.80
2018-11-27T01:27:43.001Z,3.80
2018-11-27T01:30:16.127Z,3.90
2018-11-27T01:32:44.557Z,3.80
2018-11-27T01:35:15.734Z,3.80
2018-11-27T01:37:44.284Z,3.80
2018-11-27T01:40:14.783Z,3.80
2018-11-27T01:42:43.128Z,3.80
2018-11-27T01:45:12.511Z,3.80
2018-11-27T01:47:40.923Z,3.80
2018-11-27T01:50:10.617Z,3.80
2018-11-27T01:52:39.080Z,3.80
2018-11-27T01:55:09.250Z,3.80
2018-11-27T01:57:37.801Z,3.80
2018-11-27T02:00:10.135Z,3.80
2018-11-27T02:02:38.467Z,3.80
2018-11-27T02:05:07.855Z,3.90
2018-11-27T02:07:36.332Z,3.80
2018-11-27T02:10:08.713Z,3.80
2018-11-27T02:12:37.311Z,3.80
2018-11-27T02:15:08.857Z,3.80
2018-11-27T02:17:37.202Z,3.80
2018-11-27T02:20:06.647Z,3.80
2018-11-27T02:22:34.948Z,3.80
2018-11-27T02:25:03.263Z,3.90
2018-11-27T02:27:31.553Z,3.90
2018-11-27T02:29:59.892Z,3.90
2018-11-27T02:32:28.209Z,3.80
2018-11-27T02:34:56.472Z,3.80
2018-11-27T02:37:24.756Z,3.80
2018-11-27T02:39:53.029Z,3.80
2018-11-27T02:42:21.316Z,3.80
2018-11-27T02:44:49.662Z,3.80
2018-11-27T02:47:17.953Z,3.80
2018-11-27T02:49:46.206Z,3.70
2018-11-27T02:52:14.517Z,3.80
2018-11-27T02:54:42.855Z,3.80
2018-11-27T02:57:11.208Z,3.80
2018-11-27T02:59:39.514Z,3.80
2018-11-27T03:02:07.792Z,3.80
2018-11-27T03:04:36.138Z,3.70
2018-11-27T03:07:04.410Z,3.70
2018-11-27T03:09:32.681Z,3.80
2018-11-27T03:12:00.940Z,3.80
2018-11-27T03:14:29.280Z,3.70
2018-11-27T03:16:57.545Z,3.70
2018-11-27T03:19:25.840Z,3.80
2018-11-27T03:21:54.181Z,3.80
2018-11-27T03:24:22.457Z,3.80
2018-11-27T03:26:50.775Z,3.70
2018-11-27T03:29:19.077Z,3.70
2018-11-27T03:31:47.376Z,3.70
2018-11-27T03:34:15.693Z,3.70
2018-11-27T03:36:43.999Z,3.70
2018-11-27T03:39:12.296Z,3.70
2018-11-27T03:41:40.562Z,3.70
2018-11-27T03:44:08.892Z,3.70
2018-11-27T03:46:37.148Z,3.70
2018-11-27T03:49:05.840Z,3.70
2018-11-27T03:51:34.160Z,3.60
2018-11-27T03:54:02.497Z,3.70
2018-11-27T03:56:30.811Z,3.60
2018-11-27T03:58:59.108Z,3.60
2018-11-27T04:01:27.382Z,3.70
2018-11-27T04:03:55.638Z,3.70
2018-11-27T04:06:23.901Z,3.60
2018-11-27T04:08:52.373Z,3.60
2018-11-27T04:11:20.716Z,3.60
2018-11-27T04:13:49.027Z,3.70
2018-11-27T04:16:17.320Z,3.70
2018-11-27T04:18:45.617Z,3.60
2018-11-27T04:21:13.907Z,3.60
2018-11-27T04:23:42.703Z,3.60
2018-11-27T04:26:10.972Z,3.60
2018-11-27T04:28:39.232Z,3.60
2018-11-27T04:31:07.557Z,3.60
2018-11-27T04:33:35.902Z,3.60
2018-11-27T04:36:04.172Z,3.60
2018-11-27T04:38:32.440Z,3.50
2018-11-27T04:41:00.718Z,3.50
2018-11-27T04:43:28.985Z,3.50
2018-11-27T04:45:57.354Z,3.50
2018-11-27T04:48:25.643Z,3.50
2018-11-27T04:50:53.988Z,3.60
2018-11-27T04:53:22.450Z,3.50
2018-11-27T04:55:50.750Z,3.50
2018-11-27T04:58:19.064Z,3.60
2018-11-27T05:00:47.369Z,3.50
2018-11-27T05:03:15.820Z,3.60
2018-11-27T05:05:44.137Z,3.50
2018-11-27T05:08:12.456Z,3.50
2018-11-27T05:10:40.841Z,3.60
2018-11-27T05:13:09.146Z,3.50
2018-11-27T05:15:37.396Z,3.50
2018-11-27T05:18:05.684Z,3.50
2018-11-27T05:20:33.943Z,3.50
2018-11-27T05:23:02.288Z,3.50
2018-11-27T05:25:30.559Z,3.50
2018-11-27T05:27:58.852Z,3.50
2018-11-27T05:30:28.483Z,3.50
2018-11-27T05:32:56.636Z,3.40
2018-11-27T05:35:28.652Z,3.50
2018-11-27T05:37:57.396Z,3.50
2018-11-27T05:40:26.073Z,3.50
2018-11-27T05:43:02.605Z,3.50
2018-11-27T05:45:31.392Z,3.50
2018-11-27T05:48:01.880Z,3.50
2018-11-27T05:50:30.291Z,3.50
2018-11-27T05:52:58.560Z,3.50
2018-11-27T05:55:26.837Z,3.40
2018-11-27T05:57:55.818Z,3.50
2018-11-27T06:00:25.284Z,3.40
2018-11-27T06:02:54.825Z,3.50
2018-11-27T06:05:23.400Z,3.50
2018-11-27T06:07:51.834Z,3.50
2018-11-27T06:10:21.063Z,3.50
2018-11-27T06:12:49.368Z,3.50
2018-11-27T06:15:18.787Z,3.50
2018-11-27T06:17:48.279Z,3.50
2018-11-27T06:20:18.358Z,3.50
2018-11-27T06:22:46.977Z,3.50
2018-11-27T06:25:17.422Z,3.60
2018-11-27T06:27:46.891Z,3.60
2018-11-27T06:30:20.480Z,3.50
2018-11-27T06:32:48.779Z,3.50
2018-11-27T06:35:24.893Z,3.50
2018-11-27T06:37:53.190Z,3.50
2018-11-27T06:40:25.825Z,3.50
2018-11-27T06:42:55.944Z,3.50
2018-11-27T06:45:24.348Z,3.50
2018-11-27T06:47:53.206Z,3.50
2018-11-27T06:50:22.795Z,3.50
2018-11-27T06:52:51.076Z,3.40
2018-11-27T06:55:20.413Z,3.50
2018-11-27T06:57:48.684Z,3.50
2018-11-27T07:00:25.318Z,3.50
2018-11-27T07:02:54.043Z,3.50
2018-11-27T07:05:22.373Z,3.50
2018-11-27T07:07:50.803Z,3.50
2018-11-27T07:10:21.911Z,3.50
2018-11-27T07:12:51.526Z,3.50
2018-11-27T07:15:22.056Z,3.40
2018-11-27T07:17:50.352Z,3.40
2018-11-27T07:20:18.693Z,3.40
2018-11-27T07:22:47.547Z,3.40
2018-11-27T07:25:16.534Z,3.40
2018-11-27T07:27:48.876Z,3.40
2018-11-27T07:30:20.292Z,3.50
2018-11-27T07:32:48.149Z,3.40
2018-11-27T07:35:19.217Z,3.40
2018-11-27T07:37:49.951Z,3.40
2018-11-27T07:40:24.345Z,3.40
2018-11-27T07:42:54.084Z,3.40
2018-11-27T07:45:24.115Z,3.40
2018-11-27T07:47:52.385Z,3.40
2018-11-27T07:50:20.908Z,3.40
2018-11-27T07:52:49.211Z,3.40
2018-11-27T07:55:18.600Z,3.40
2018-11-27T07:57:47.103Z,3.40
2018-11-27T08:00:16.588Z,3.40
2018-11-27T08:02:46.944Z,3.40
2018-11-27T08:05:16.505Z,3.50
2018-11-27T08:07:46.744Z,3.50
2018-11-27T08:10:17.285Z,3.60
2018-11-27T08:12:45.580Z,3.50
2018-11-27T08:15:21.009Z,3.50
2018-11-27T08:17:49.312Z,3.60
2018-11-27T08:20:20.006Z,3.60
2018-11-27T08:22:48.791Z,3.60
2018-11-27T08:25:17.124Z,3.50
2018-11-27T08:27:45.532Z,3.50
2018-11-27T08:30:15.125Z,3.60
2018-11-27T08:32:43.461Z,3.60
2018-11-27T08:35:15.271Z,3.60
2018-11-27T08:37:43.980Z,3.60
2018-11-27T08:40:15.777Z,3.60
2018-11-27T08:42:44.093Z,3.60
2018-11-27T08:45:14.455Z,3.60
2018-11-27T08:47:42.979Z,3.70
2018-11-27T08:50:15.238Z,3.70
2018-11-27T08:52:46.864Z,3.60
2018-11-27T08:55:15.558Z,3.60
2018-11-27T08:57:45.187Z,3.60
2018-11-27T09:00:15.708Z,3.60
2018-11-27T09:02:44.002Z,3.60
2018-11-27T09:05:12.816Z,3.60
2018-11-27T09:07:41.492Z,3.70
2018-11-27T09:10:16.338Z,3.70
2018-11-27T09:12:44.741Z,3.70
2018-11-27T09:15:14.244Z,3.60
2018-11-27T09:17:49.182Z,3.60
2018-11-27T09:20:17.560Z,3.60
2018-11-27T09:22:45.857Z,3.70
2018-11-27T09:25:14.476Z,3.60
2018-11-27T09:27:42.753Z,3.60
2018-11-27T09:30:17.880Z,3.60
2018-11-27T09:32:46.386Z,3.60
2018-11-27T09:35:14.665Z,3.60
2018-11-27T09:37:42.976Z,3.70
2018-11-27T09:40:12.621Z,3.70
2018-11-27T09:42:40.992Z,3.60
2018-11-27T09:45:11.600Z,3.70
2018-11-27T09:47:40.135Z,3.70
2018-11-27T09:50:10.337Z,3.80
2018-11-27T09:52:38.654Z,3.70
2018-11-27T09:55:10.345Z,3.70
2018-11-27T09:57:38.691Z,3.70
2018-11-27T10:00:10.832Z,3.80
2018-11-27T10:02:39.166Z,3.80
2018-11-27T10:05:07.967Z,3.70
2018-11-27T10:07:36.401Z,3.60
2018-11-27T10:10:06.353Z,3.60
2018-11-27T10:12:34.689Z,3.60
2018-11-27T10:15:03.218Z,3.70
2018-11-27T10:17:31.620Z,3.70
2018-11-27T10:19:59.932Z,3.60
2018-11-27T10:22:28.265Z,3.60
2018-11-27T10:24:56.573Z,3.60
2018-11-27T10:27:25.751Z,3.60
2018-11-27T10:29:54.778Z,3.60
2018-11-27T10:32:23.086Z,3.60
2018-11-27T10:34:51.363Z,3.60
2018-11-27T10:37:19.692Z,3.50
2018-11-27T10:39:48.049Z,3.50
2018-11-27T10:42:16.346Z,3.50
2018-11-27T10:44:44.624Z,3.50
2018-11-27T10:47:12.888Z,3.50
2018-11-27T10:49:41.208Z,3.40
2018-11-27T10:52:10.454Z,3.40
2018-11-27T10:54:39.645Z,3.40
2018-11-27T10:57:07.901Z,3.50
2018-11-27T10:59:36.177Z,3.50
2018-11-27T11:02:10.189Z,3.50
2018-11-27T11:04:38.456Z,3.50
2018-11-27T11:07:06.889Z,3.60
2018-11-27T11:09:35.472Z,3.60
2018-11-27T11:12:04.605Z,3.50
2018-11-27T11:14:32.902Z,3.50
2018-11-27T11:17:01.744Z,3.40
2018-11-27T11:19:30.196Z,3.40
2018-11-27T11:21:58.584Z,3.50
2018-11-27T11:24:26.887Z,3.50
2018-11-27T11:26:55.176Z,3.60
2018-11-27T11:29:23.468Z,3.50
2018-11-27T11:31:51.870Z,3.50
2018-11-27T11:34:20.177Z,3.50
2018-11-27T11:36:48.450Z,3.50
2018-11-27T11:39:16.821Z,3.50
2018-11-27T11:41:45.132Z,3.50
2018-11-27T11:44:13.520Z,3.50
2018-11-27T11:46:41.783Z,3.40
2018-11-27T11:49:10.138Z,3.50
2018-11-27T11:51:38.396Z,3.50
2018-11-27T11:54:06.756Z,3.50
2018-11-27T11:56:35.070Z,3.50
2018-11-27T11:59:03.469Z,3.50
2018-11-27T12:01:32.019Z,3.50
2018-11-27T12:04:00.917Z,3.60
2018-11-27T12:06:28.607Z,3.50
2018-11-27T12:08:56.885Z,3.50
2018-11-27T12:11:25.330Z,3.50
2018-11-27T12:13:53.580Z,3.60
2018-11-27T12:16:21.940Z,3.60
2018-11-27T12:18:50.217Z,3.70
2018-11-27T12:21:18.534Z,3.70
2018-11-27T12:23:46.815Z,3.60
2018-11-27T12:26:15.624Z,3.60
2018-11-27T12:28:44.836Z,3.60
2018-11-27T12:31:12.237Z,3.50
2018-11-27T12:33:40.608Z,3.50
2018-11-27T12:36:08.964Z,3.60
2018-11-27T12:38:37.439Z,3.60
2018-11-27T12:41:10.200Z,3.50
2018-11-27T12:43:34.642Z,3.50
2018-11-27T12:46:03.267Z,3.50
2018-11-27T12:48:31.557Z,3.40
2018-11-27T12:51:00.013Z,3.50
2018-11-27T12:53:28.296Z,3.60
2018-11-27T12:55:56.582Z,3.60
2018-11-27T12:58:24.848Z,3.50
2018-11-27T13:00:53.213Z,3.60
2018-11-27T13:03:21.492Z,3.60
2018-11-27T13:05:49.884Z,3.60
2018-11-27T13:08:20.271Z,3.60
2018-11-27T13:10:48.567Z,3.60
2018-11-27T13:13:16.850Z,3.60
2018-11-27T13:15:45.524Z,3.60
2018-11-27T13:18:13.820Z,3.70
2018-11-27T13:20:42.308Z,3.60
2018-11-27T13:23:10.724Z,3.60
2018-11-27T13:25:39.513Z,3.50
2018-11-27T13:28:09.154Z,3.50
2018-11-27T13:30:44.608Z,3.60
2018-11-27T13:33:15.344Z,3.50
2018-11-27T13:35:43.787Z,3.50
2018-11-27T13:38:12.031Z,3.40
2018-11-27T13:40:40.523Z,3.40
2018-11-27T13:43:09.780Z,3.50
2018-11-27T13:45:38.224Z,3.50
2018-11-27T13:48:07.112Z,3.50
2018-11-27T13:50:35.452Z,3.50
2018-11-27T13:53:03.775Z,3.50
2018-11-27T13:55:32.037Z,3.50
2018-11-27T13:58:00.325Z,3.50
2018-11-27T14:00:28.627Z,3.60
2018-11-27T14:02:56.916Z,3.50
2018-11-27T14:05:25.745Z,3.50
2018-11-27T14:07:54.050Z,3.50
2018-11-27T14:10:22.323Z,3.50
2018-11-27T14:12:50.599Z,3.50
2018-11-27T14:15:21.982Z,3.40
2018-11-27T14:17:51.006Z,3.40
2018-11-27T14:20:19.371Z,3.40
2018-11-27T14:22:48.469Z,3.40
2018-11-27T14:25:16.937Z,3.40
2018-11-27T14:27:46.485Z,3.30
2018-11-27T14:30:23.206Z,3.40
2018-11-27T14:32:51.883Z,3.30
2018-11-27T14:35:21.225Z,3.30
2018-11-27T14:37:50.507Z,3.40
2018-11-27T14:40:21.044Z,3.40
2018-11-27T14:42:49.355Z,3.40
2018-11-27T14:45:20.719Z,3.40
2018-11-27T14:47:51.032Z,3.40
2018-11-27T14:50:19.303Z,3.40
2018-11-27T14:52:47.579Z,3.40
2018-11-27T14:55:17.030Z,3.40
2018-11-27T14:57:45.501Z,3.40
2018-11-27T15:00:18.087Z,3.30
2018-11-27T15:02:46.380Z,3.30
2018-11-27T15:05:16.246Z,3.30
2018-11-27T15:07:44.656Z,3.30
2018-11-27T15:10:13.364Z,3.30
2018-11-27T15:12:42.448Z,3.30
2018-11-27T15:15:11.992Z,3.40
2018-11-27T15:17:40.351Z,3.40
2018-11-27T15:20:18.121Z,3.40
2018-11-27T15:22:47.242Z,3.40
2018-11-27T15:25:15.558Z,3.30
2018-11-27T15:27:43.878Z,3.30
2018-11-27T15:30:19.070Z,3.30
2018-11-27T15:32:47.517Z,3.30
2018-11-27T15:35:16.393Z,3.30
2018-11-27T15:37:44.730Z,3.30
2018-11-27T15:40:16.240Z,3.30
2018-11-27T15:42:44.540Z,3.30
2018-11-27T15:45:14.381Z,3.30
2018-11-27T15:47:42.702Z,3.30
2018-11-27T15:50:11.088Z,3.30
2018-11-27T15:52:39.397Z,3.30
2018-11-27T15:55:24.440Z,3.20
2018-11-27T15:57:54.052Z,3.20
2018-11-27T16:00:22.343Z,3.20
2018-11-27T16:02:50.674Z,3.20
2018-11-27T16:05:19.083Z,3.20
2018-11-27T16:07:47.359Z,3.10
2018-11-27T16:10:17.108Z,3.10
2018-11-27T16:12:45.395Z,3.00
2018-11-27T16:15:15.798Z,3.00
2018-11-27T16:17:44.176Z,3.00
2018-11-27T16:20:16.457Z,3.00
2018-11-27T16:22:45.953Z,2.90
2018-11-27T16:25:15.365Z,3.00
2018-11-27T16:27:43.624Z,3.00
2018-11-27T16:30:18.385Z,3.00
2018-11-27T16:32:46.912Z,3.00
2018-11-27T16:35:15.706Z,3.00
2018-11-27T16:37:45.315Z,3.00
2018-11-27T16:40:18.653Z,3.00
2018-11-27T16:42:47.046Z,3.00
2018-11-27T16:45:18.964Z,3.00
2018-11-27T16:47:47.447Z,3.00
2018-11-27T16:50:16.431Z,3.10
2018-11-27T16:52:45.112Z,3.00
2018-11-27T16:55:15.522Z,3.00
2018-11-27T16:57:44.089Z,3.10
2018-11-27T17:00:20.522Z,3.10
2018-11-27T17:02:50.343Z,3.00
2018-11-27T17:05:18.017Z,3.00
2018-11-27T17:07:46.479Z,3.00
2018-11-27T17:10:15.698Z,3.00
2018-11-27T17:12:44.645Z,3.00
2018-11-27T17:15:20.013Z,3.00
2018-11-27T17:17:48.397Z,3.10
2018-11-27T17:20:18.086Z,3.00
2018-11-27T17:22:46.432Z,3.10
2018-11-27T17:25:15.156Z,3.10
2018-11-27T17:27:44.859Z,3.10
2018-11-27T17:31:17.261Z,3.10
2018-11-27T17:34:17.364Z,3.10
2018-11-27T17:36:45.787Z,3.20
2018-11-27T17:39:14.049Z,3.20
2018-11-27T17:41:42.409Z,3.20
2018-11-27T17:44:12.928Z,3.10
2018-11-27T17:46:41.183Z,3.10
2018-11-27T17:49:09.455Z,3.10
2018-11-27T17:51:37.871Z,3.10
2018-11-27T17:54:06.757Z,3.10
2018-11-27T17:56:35.025Z,3.00
2018-11-27T17:59:03.292Z,3.00
2018-11-27T18:01:31.632Z,3.10
2018-11-27T18:03:59.952Z,3.10
2018-11-27T18:06:28.251Z,3.10
2018-11-27T18:08:56.599Z,3.10
2018-11-27T18:11:24.968Z,3.10
2018-11-27T18:13:53.322Z,3.10
2018-11-27T18:16:21.622Z,3.10
2018-11-27T18:18:49.904Z,3.00
2018-11-27T18:21:18.232Z,3.00
2018-11-27T18:23:46.622Z,3.00
2018-11-27T18:26:14.926Z,3.00
2018-11-27T18:28:43.291Z,3.00
2018-11-27T18:31:11.588Z,3.00
2018-11-27T18:33:39.868Z,3.00
2018-11-27T18:36:10.019Z,2.90
2018-11-27T18:38:38.428Z,2.90
2018-11-27T18:41:07.074Z,3.00
2018-11-27T18:43:35.426Z,3.00
2018-11-27T18:46:03.843Z,3.00
2018-11-27T18:48:32.169Z,3.00
2018-11-27T18:51:01.627Z,3.00
2018-11-27T18:53:29.964Z,3.00
2018-11-27T18:55:58.459Z,2.90
2018-11-27T18:58:27.715Z,2.90
2018-11-27T19:00:56.951Z,2.90
2018-11-27T19:03:24.517Z,2.90
2018-11-27T19:05:53.077Z,2.90
2018-11-27T19:08:21.435Z,2.90
2018-11-27T19:10:49.755Z,2.90
2018-11-27T19:13:18.440Z,2.90
2018-11-27T19:15:47.643Z,2.90
2018-11-27T19:18:25.208Z,2.90
2018-11-27T19:20:54.765Z,2.90
2018-11-27T19:23:25.328Z,3.00
2018-11-27T19:25:53.588Z,3.00
2018-11-27T19:28:21.851Z,3.00
2018-11-27T19:30:50.660Z,2.90
2018-11-27T19:33:18.964Z,2.90
2018-11-27T19:35:47.232Z,2.90
2018-11-27T19:38:16.927Z,2.90
2018-11-27T19:40:45.177Z,2.90
2018-11-27T19:43:13.488Z,2.90
2018-11-27T19:45:41.753Z,2.90
2018-11-27T19:48:10.907Z,2.90
2018-11-27T19:50:39.412Z,2.90
2018-11-27T19:53:11.965Z,2.90
2018-11-27T19:55:37.615Z,2.90
2018-11-27T19:58:06.757Z,2.90
2018-11-27T20:00:35.748Z,2.90
2018-11-27T20:03:04.280Z,2.90
2018-11-27T20:05:32.795Z,2.90
2018-11-27T20:08:01.207Z,2.90
2018-11-27T20:10:29.560Z,2.90
2018-11-27T20:12:57.931Z,2.90
2018-11-27T20:15:28.807Z,2.90
2018-11-27T20:17:57.574Z,2.90
2018-11-27T20:20:27.252Z,2.90
2018-11-27T20:22:56.593Z,2.90
2018-11-27T20:25:25.362Z,2.90
2018-11-27T20:27:53.805Z,2.90
2018-11-27T20:30:23.984Z,2.90
2018-11-27T20:33:01.829Z,2.90
2018-11-27T20:35:30.868Z,2.80
2018-11-27T20:38:01.274Z,2.90
2018-11-27T20:40:29.800Z,2.80
2018-11-27T20:42:58.353Z,2.90
2018-11-27T20:45:27.640Z,2.90
2018-11-27T20:48:02.049Z,2.90
2018-11-27T20:50:30.412Z,2.90
2018-11-27T20:53:00.108Z,2.90
2018-11-27T20:55:28.420Z,2.90
2018-11-27T20:57:57.949Z,2.80
2018-11-27T21:00:27.977Z,2.90
2018-11-27T21:02:58.979Z,2.80
2018-11-27T21:05:27.384Z,2.90
2018-11-27T21:07:55.769Z,2.90
2018-11-27T21:10:24.193Z,2.90
2018-11-27T21:12:52.501Z,2.80
2018-11-27T21:15:21.011Z,2.80
2018-11-27T21:17:49.887Z,2.80
2018-11-27T21:20:19.563Z,2.90
2018-11-27T21:22:47.950Z,2.80
2018-11-27T21:25:22.665Z,2.80
2018-11-27T21:27:57.154Z,2.90
2018-11-27T21:30:25.486Z,2.90
2018-11-27T21:32:53.787Z,2.90
2018-11-27T21:35:22.072Z,2.90
2018-11-27T21:37:50.494Z,2.90
2018-11-27T21:40:19.061Z,2.90
2018-11-27T21:42:47.485Z,2.90
2018-11-27T21:45:18.872Z,3.00
2018-11-27T21:47:48.310Z,3.00
2018-11-27T21:50:17.801Z,3.10
2018-11-27T21:52:46.265Z,3.10
2018-11-27T21:55:15.188Z,3.00
2018-11-27T21:57:43.840Z,3.00
2018-11-27T22:00:20.698Z,3.00
2018-11-27T22:02:49.039Z,2.90
2018-11-27T22:05:17.730Z,2.80
2018-11-27T22:07:46.140Z,2.80
2018-11-27T22:10:18.464Z,2.80
2018-11-27T22:12:47.988Z,2.80
2018-11-27T22:15:18.608Z,2.80
2018-11-27T22:17:47.055Z,2.80
2018-11-27T22:20:21.302Z,2.80
2018-11-27T22:22:48.326Z,2.80
2018-11-27T22:25:27.048Z,2.80
2018-11-27T22:28:01.428Z,2.80
2018-11-27T22:30:38.446Z,2.80
2018-11-27T22:33:07.938Z,2.80
2018-11-27T22:35:36.647Z,2.80
2018-11-27T22:38:12.461Z,2.80
2018-11-27T22:40:42.837Z,2.80
2018-11-27T22:43:14.533Z,2.80
2018-11-27T22:45:42.827Z,2.70
2018-11-27T22:48:12.287Z,2.70
2018-11-27T22:50:40.406Z,2.70
2018-11-27T22:53:09.356Z,2.80
2018-11-27T22:55:37.878Z,2.70
2018-11-27T22:58:07.323Z,2.70
2018-11-27T23:00:41.120Z,2.80
2018-11-27T23:03:09.513Z,2.80
2018-11-27T23:05:37.773Z,2.70
2018-11-27T23:08:06.239Z,2.80
2018-11-27T23:10:35.869Z,2.80
2018-11-27T23:13:04.590Z,2.80
2018-11-27T23:15:32.908Z,2.80
2018-11-27T23:18:01.195Z,2.70
2018-11-27T23:20:29.471Z,2.70
2018-11-27T23:22:57.761Z,2.70
2018-11-27T23:25:26.035Z,2.70
2018-11-27T23:27:54.424Z,2.70
2018-11-27T23:30:24.823Z,2.70
2018-11-27T23:32:53.335Z,2.70
2018-11-27T23:35:21.594Z,2.70
2018-11-27T23:37:49.964Z,2.70
2018-11-27T23:40:19.571Z,2.70
2018-11-27T23:42:48.161Z,2.70
2018-11-27T23:45:18.844Z,2.70
2018-11-27T23:47:47.235Z,2.70
2018-11-27T23:50:16.900Z,2.70
2018-11-27T23:52:45.463Z,2.70
2018-11-27T23:55:14.691Z,2.70
2018-11-27T23:57:43.399Z,2.70
